sensor_id;sensor_type;location;lat;lon;timestamp;P1;durP1;ratioP1;P2;durP2;ratioP2
23555;SDS011;11956;53.184;8.578;2023-06-22T00:01:08;10.98;;;9.55;;
23555;SDS011;11956;53.184;8.578;2023-06-22T00:04:09;12.90;;;9.52;;
23555;SDS011;11956;53.184;8.578;2023-06-22T00:07:09;9.85;;;8.70;;
23555;SDS011;11956;53.184;8.578;2023-06-22T00:10:11;10.77;;;9.48;;
23555;SDS011;11956;53.184;8.578;2023-06-22T00:13:12;11.77;;;10.32;;
23555;SDS011;11956;53.184;8.578;2023-06-22T00:16:13;11.15;;;8.90;;
23555;SDS011;11956;53.184;8.578;2023-06-22T00:19:17;11.75;;;9.05;;
23555;SDS011;11956;53.184;8.578;2023-06-22T00:22:19;10.73;;;8.80;;
23555;SDS011;11956;53.184;8.578;2023-06-22T00:25:28;13.82;;;10.07;;
23555;SDS011;11956;53.184;8.578;2023-06-22T00:28:29;12.93;;;9.93;;
23555;SDS011;11956;53.184;8.578;2023-06-22T00:31:30;12.88;;;9.68;;
23555;SDS011;11956;53.184;8.578;2023-06-22T00:34:31;12.13;;;10.30;;
23555;SDS011;11956;53.184;8.578;2023-06-22T00:37:33;11.05;;;9.88;;
23555;SDS011;11956;53.184;8.578;2023-06-22T00:40:35;11.18;;;9.98;;
23555;SDS011;11956;53.184;8.578;2023-06-22T00:43:37;12.68;;;10.50;;
23555;SDS011;11956;53.184;8.578;2023-06-22T00:46:38;11.35;;;10.10;;
23555;SDS011;11956;53.184;8.578;2023-06-22T00:49:39;12.07;;;8.82;;
23555;SDS011;11956;53.184;8.578;2023-06-22T00:52:40;11.13;;;10.00;;
23555;SDS011;11956;53.184;8.578;2023-06-22T00:55:44;10.52;;;9.45;;
23555;SDS011;11956;53.184;8.578;2023-06-22T00:58:51;10.48;;;9.35;;
23555;SDS011;11956;53.184;8.578;2023-06-22T01:01:53;12.50;;;10.20;;
23555;SDS011;11956;53.184;8.578;2023-06-22T01:04:54;11.43;;;10.05;;
23555;SDS011;11956;53.184;8.578;2023-06-22T01:11:43;11.43;;;10.23;;
23555;SDS011;11956;53.184;8.578;2023-06-22T01:14:55;12.40;;;9.82;;
23555;SDS011;11956;53.184;8.578;2023-06-22T01:18:36;10.75;;;9.35;;
23555;SDS011;11956;53.184;8.578;2023-06-22T01:21:42;11.65;;;10.40;;
23555;SDS011;11956;53.184;8.578;2023-06-22T01:28:49;11.90;;;10.65;;
23555;SDS011;11956;53.184;8.578;2023-06-22T01:31:51;12.80;;;9.98;;
23555;SDS011;11956;53.184;8.578;2023-06-22T01:37:56;13.68;;;11.18;;
23555;SDS011;11956;53.184;8.578;2023-06-22T01:40:58;15.63;;;12.60;;
23555;SDS011;11956;53.184;8.578;2023-06-22T01:43:59;15.05;;;13.15;;
23555;SDS011;11956;53.184;8.578;2023-06-22T01:47:01;15.82;;;11.90;;
23555;SDS011;11956;53.184;8.578;2023-06-22T01:50:03;13.65;;;12.27;;
23555;SDS011;11956;53.184;8.578;2023-06-22T01:53:07;13.98;;;11.07;;
23555;SDS011;11956;53.184;8.578;2023-06-22T01:56:08;13.73;;;12.32;;
23555;SDS011;11956;53.184;8.578;2023-06-22T01:59:12;17.23;;;14.05;;
23555;SDS011;11956;53.184;8.578;2023-06-22T02:02:56;19.90;;;16.02;;
23555;SDS011;11956;53.184;8.578;2023-06-22T02:06:04;17.33;;;15.52;;
23555;SDS011;11956;53.184;8.578;2023-06-22T02:09:12;16.98;;;14.52;;
23555;SDS011;11956;53.184;8.578;2023-06-22T02:12:18;18.17;;;14.40;;
23555;SDS011;11956;53.184;8.578;2023-06-22T02:15:25;15.43;;;13.82;;
23555;SDS011;11956;53.184;8.578;2023-06-22T02:18:28;19.70;;;16.27;;
23555;SDS011;11956;53.184;8.578;2023-06-22T02:21:29;18.63;;;15.45;;
23555;SDS011;11956;53.184;8.578;2023-06-22T02:24:31;16.30;;;14.15;;
23555;SDS011;11956;53.184;8.578;2023-06-22T02:27:33;16.92;;;14.32;;
23555;SDS011;11956;53.184;8.578;2023-06-22T02:30:34;17.00;;;14.00;;
23555;SDS011;11956;53.184;8.578;2023-06-22T02:33:35;16.02;;;14.35;;
23555;SDS011;11956;53.184;8.578;2023-06-22T02:36:36;18.20;;;14.82;;
23555;SDS011;11956;53.184;8.578;2023-06-22T02:39:36;18.70;;;15.40;;
23555;SDS011;11956;53.184;8.578;2023-06-22T02:42:39;18.05;;;15.95;;
23555;SDS011;11956;53.184;8.578;2023-06-22T02:45:40;16.93;;;14.10;;
23555;SDS011;11956;53.184;8.578;2023-06-22T02:48:42;17.50;;;13.90;;
23555;SDS011;11956;53.184;8.578;2023-06-22T02:51:45;18.08;;;14.45;;
23555;SDS011;11956;53.184;8.578;2023-06-22T02:54:49;16.15;;;14.20;;
23555;SDS011;11956;53.184;8.578;2023-06-22T02:57:50;15.70;;;13.75;;
23555;SDS011;11956;53.184;8.578;2023-06-22T03:00:52;18.35;;;15.10;;
23555;SDS011;11956;53.184;8.578;2023-06-22T03:03:53;17.92;;;16.08;;
23555;SDS011;11956;53.184;8.578;2023-06-22T03:06:54;18.25;;;15.73;;
23555;SDS011;11956;53.184;8.578;2023-06-22T03:09:55;18.27;;;16.23;;
23555;SDS011;11956;53.184;8.578;2023-06-22T03:12:56;23.25;;;18.20;;
23555;SDS011;11956;53.184;8.578;2023-06-22T03:15:57;22.45;;;18.85;;
23555;SDS011;11956;53.184;8.578;2023-06-22T03:18:58;23.55;;;20.42;;
23555;SDS011;11956;53.184;8.578;2023-06-22T03:21:59;18.35;;;16.08;;
23555;SDS011;11956;53.184;8.578;2023-06-22T03:25:00;23.10;;;19.08;;
23555;SDS011;11956;53.184;8.578;2023-06-22T03:28:02;21.55;;;17.67;;
23555;SDS011;11956;53.184;8.578;2023-06-22T03:31:03;18.92;;;16.85;;
23555;SDS011;11956;53.184;8.578;2023-06-22T03:34:07;23.77;;;20.48;;
23555;SDS011;11956;53.184;8.578;2023-06-22T03:37:08;26.40;;;20.38;;
23555;SDS011;11956;53.184;8.578;2023-06-22T03:40:09;21.77;;;18.08;;
23555;SDS011;11956;53.184;8.578;2023-06-22T03:43:10;21.30;;;18.20;;
23555;SDS011;11956;53.184;8.578;2023-06-22T03:46:11;18.25;;;16.27;;
23555;SDS011;11956;53.184;8.578;2023-06-22T03:49:12;20.83;;;17.38;;
23555;SDS011;11956;53.184;8.578;2023-06-22T03:52:13;19.60;;;16.30;;
23555;SDS011;11956;53.184;8.578;2023-06-22T03:55:13;21.50;;;19.15;;
23555;SDS011;11956;53.184;8.578;2023-06-22T03:58:14;23.83;;;18.25;;
23555;SDS011;11956;53.184;8.578;2023-06-22T04:01:15;23.02;;;20.55;;
23555;SDS011;11956;53.184;8.578;2023-06-22T04:04:17;23.15;;;20.75;;
23555;SDS011;11956;53.184;8.578;2023-06-22T04:07:18;18.55;;;16.55;;
23555;SDS011;11956;53.184;8.578;2023-06-22T04:10:19;22.10;;;19.70;;
23555;SDS011;11956;53.184;8.578;2023-06-22T04:13:20;20.10;;;17.95;;
23555;SDS011;11956;53.184;8.578;2023-06-22T04:16:21;19.30;;;17.30;;
23555;SDS011;11956;53.184;8.578;2023-06-22T04:19:22;20.80;;;17.33;;
23555;SDS011;11956;53.184;8.578;2023-06-22T04:22:23;18.83;;;16.83;;
23555;SDS011;11956;53.184;8.578;2023-06-22T04:25:24;20.13;;;17.98;;
23555;SDS011;11956;53.184;8.578;2023-06-22T04:28:25;18.40;;;16.23;;
23555;SDS011;11956;53.184;8.578;2023-06-22T04:31:26;20.13;;;16.02;;
23555;SDS011;11956;53.184;8.578;2023-06-22T04:34:32;19.45;;;16.17;;
23555;SDS011;11956;53.184;8.578;2023-06-22T04:37:33;18.40;;;16.27;;
23555;SDS011;11956;53.184;8.578;2023-06-22T04:40:34;17.17;;;15.38;;
23555;SDS011;11956;53.184;8.578;2023-06-22T04:43:36;19.42;;;16.58;;
23555;SDS011;11956;53.184;8.578;2023-06-22T04:46:37;16.58;;;14.10;;
23555;SDS011;11956;53.184;8.578;2023-06-22T04:49:39;16.10;;;13.68;;
23555;SDS011;11956;53.184;8.578;2023-06-22T04:52:43;16.13;;;13.00;;
23555;SDS011;11956;53.184;8.578;2023-06-22T04:55:44;14.63;;;12.77;;
23555;SDS011;11956;53.184;8.578;2023-06-22T04:58:45;14.13;;;12.00;;
23555;SDS011;11956;53.184;8.578;2023-06-22T05:01:46;15.00;;;12.25;;
23555;SDS011;11956;53.184;8.578;2023-06-22T05:04:47;13.80;;;12.13;;
23555;SDS011;11956;53.184;8.578;2023-06-22T05:07:51;12.48;;;10.63;;
23555;SDS011;11956;53.184;8.578;2023-06-22T05:10:59;14.43;;;11.13;;
23555;SDS011;11956;53.184;8.578;2023-06-22T05:14:00;14.65;;;11.15;;
23555;SDS011;11956;53.184;8.578;2023-06-22T05:17:01;14.15;;;11.32;;
23555;SDS011;11956;53.184;8.578;2023-06-22T05:20:04;15.02;;;11.85;;
23555;SDS011;11956;53.184;8.578;2023-06-22T05:23:06;12.93;;;11.27;;
23555;SDS011;11956;53.184;8.578;2023-06-22T05:26:07;11.60;;;10.02;;
23555;SDS011;11956;53.184;8.578;2023-06-22T05:29:10;11.85;;;9.77;;
23555;SDS011;11956;53.184;8.578;2023-06-22T05:32:11;12.60;;;10.43;;
23555;SDS011;11956;53.184;8.578;2023-06-22T05:35:11;13.30;;;10.80;;
23555;SDS011;11956;53.184;8.578;2023-06-22T05:38:13;13.63;;;10.88;;
23555;SDS011;11956;53.184;8.578;2023-06-22T05:41:14;13.13;;;10.88;;
23555;SDS011;11956;53.184;8.578;2023-06-22T05:44:15;15.73;;;11.32;;
23555;SDS011;11956;53.184;8.578;2023-06-22T05:47:16;12.80;;;10.00;;
23555;SDS011;11956;53.184;8.578;2023-06-22T05:50:18;14.82;;;10.98;;
23555;SDS011;11956;53.184;8.578;2023-06-22T05:53:19;14.57;;;11.02;;
23555;SDS011;11956;53.184;8.578;2023-06-22T05:56:19;12.15;;;10.85;;
23555;SDS011;11956;53.184;8.578;2023-06-22T05:59:20;14.27;;;10.15;;
23555;SDS011;11956;53.184;8.578;2023-06-22T06:02:21;11.45;;;9.90;;
23555;SDS011;11956;53.184;8.578;2023-06-22T06:05:22;10.80;;;8.32;;
23555;SDS011;11956;53.184;8.578;2023-06-22T06:08:25;14.43;;;9.23;;
23555;SDS011;11956;53.184;8.578;2023-06-22T06:11:26;12.80;;;8.88;;
23555;SDS011;11956;53.184;8.578;2023-06-22T06:14:27;12.50;;;9.07;;
23555;SDS011;11956;53.184;8.578;2023-06-22T06:17:28;9.10;;;7.00;;
23555;SDS011;11956;53.184;8.578;2023-06-22T06:20:28;8.15;;;7.30;;
23555;SDS011;11956;53.184;8.578;2023-06-22T06:23:29;10.35;;;6.53;;
23555;SDS011;11956;53.184;8.578;2023-06-22T06:26:30;10.55;;;8.38;;
23555;SDS011;11956;53.184;8.578;2023-06-22T06:29:33;10.45;;;8.55;;
23555;SDS011;11956;53.184;8.578;2023-06-22T06:32:33;11.65;;;9.68;;
23555;SDS011;11956;53.184;8.578;2023-06-22T06:35:34;10.25;;;8.57;;
23555;SDS011;11956;53.184;8.578;2023-06-22T06:38:36;7.30;;;6.60;;
23555;SDS011;11956;53.184;8.578;2023-06-22T06:41:36;7.82;;;6.82;;
23555;SDS011;11956;53.184;8.578;2023-06-22T06:44:37;8.52;;;6.57;;
23555;SDS011;11956;53.184;8.578;2023-06-22T06:47:39;10.20;;;7.60;;
23555;SDS011;11956;53.184;8.578;2023-06-22T06:50:40;8.80;;;6.47;;
23555;SDS011;11956;53.184;8.578;2023-06-22T06:53:40;10.40;;;7.05;;
23555;SDS011;11956;53.184;8.578;2023-06-22T06:56:41;6.75;;;5.55;;
23555;SDS011;11956;53.184;8.578;2023-06-22T06:59:48;7.18;;;5.95;;
23555;SDS011;11956;53.184;8.578;2023-06-22T07:02:49;6.80;;;5.95;;
23555;SDS011;11956;53.184;8.578;2023-06-22T07:05:50;8.43;;;5.43;;
23555;SDS011;11956;53.184;8.578;2023-06-22T07:08:51;9.60;;;7.25;;
23555;SDS011;11956;53.184;8.578;2023-06-22T07:11:52;5.88;;;4.72;;
23555;SDS011;11956;53.184;8.578;2023-06-22T07:14:53;7.55;;;5.53;;
23555;SDS011;11956;53.184;8.578;2023-06-22T07:17:54;6.47;;;5.50;;
23555;SDS011;11956;53.184;8.578;2023-06-22T07:20:54;5.40;;;3.80;;
23555;SDS011;11956;53.184;8.578;2023-06-22T07:23:55;6.45;;;5.75;;
23555;SDS011;11956;53.184;8.578;2023-06-22T07:26:57;8.25;;;5.90;;
23555;SDS011;11956;53.184;8.578;2023-06-22T07:29:59;6.82;;;5.45;;
23555;SDS011;11956;53.184;8.578;2023-06-22T07:33:00;6.72;;;5.30;;
23555;SDS011;11956;53.184;8.578;2023-06-22T07:36:04;6.55;;;5.78;;
23555;SDS011;11956;53.184;8.578;2023-06-22T07:39:08;4.18;;;3.67;;
23555;SDS011;11956;53.184;8.578;2023-06-22T07:42:08;3.28;;;2.97;;
23555;SDS011;11956;53.184;8.578;2023-06-22T07:45:10;4.53;;;3.75;;
23555;SDS011;11956;53.184;8.578;2023-06-22T07:48:11;2.92;;;2.60;;
23555;SDS011;11956;53.184;8.578;2023-06-22T07:51:12;3.58;;;2.20;;
23555;SDS011;11956;53.184;8.578;2023-06-22T07:54:14;3.92;;;3.10;;
23555;SDS011;11956;53.184;8.578;2023-06-22T08:00:17;3.28;;;2.60;;
23555;SDS011;11956;53.184;8.578;2023-06-22T08:03:18;4.00;;;2.22;;
23555;SDS011;11956;53.184;8.578;2023-06-22T08:06:19;5.03;;;2.65;;
23555;SDS011;11956;53.184;8.578;2023-06-22T08:09:20;5.15;;;3.20;;
23555;SDS011;11956;53.184;8.578;2023-06-22T08:12:21;3.58;;;2.60;;
23555;SDS011;11956;53.184;8.578;2023-06-22T08:15:22;3.33;;;2.85;;
23555;SDS011;11956;53.184;8.578;2023-06-22T08:18:23;5.25;;;3.20;;
23555;SDS011;11956;53.184;8.578;2023-06-22T08:21:24;3.88;;;2.40;;
23555;SDS011;11956;53.184;8.578;2023-06-22T08:24:25;3.78;;;3.10;;
23555;SDS011;11956;53.184;8.578;2023-06-22T08:27:30;3.60;;;2.70;;
23555;SDS011;11956;53.184;8.578;2023-06-22T08:30:34;3.83;;;2.58;;
23555;SDS011;11956;53.184;8.578;2023-06-22T08:33:35;4.80;;;2.70;;
23555;SDS011;11956;53.184;8.578;2023-06-22T08:36:36;3.88;;;2.78;;
23555;SDS011;11956;53.184;8.578;2023-06-22T08:39:43;3.15;;;2.40;;
23555;SDS011;11956;53.184;8.578;2023-06-22T08:42:45;3.73;;;3.00;;
23555;SDS011;11956;53.184;8.578;2023-06-22T08:45:47;4.95;;;3.28;;
23555;SDS011;11956;53.184;8.578;2023-06-22T08:48:47;4.10;;;3.67;;
23555;SDS011;11956;53.184;8.578;2023-06-22T08:51:50;3.70;;;3.25;;
23555;SDS011;11956;53.184;8.578;2023-06-22T08:54:53;5.43;;;2.92;;
23555;SDS011;11956;53.184;8.578;2023-06-22T08:57:54;3.95;;;2.97;;
23555;SDS011;11956;53.184;8.578;2023-06-22T09:00:55;4.10;;;3.40;;
23555;SDS011;11956;53.184;8.578;2023-06-22T09:03:56;4.43;;;3.38;;
23555;SDS011;11956;53.184;8.578;2023-06-22T09:06:57;4.20;;;3.10;;
23555;SDS011;11956;53.184;8.578;2023-06-22T09:09:58;4.22;;;3.72;;
23555;SDS011;11956;53.184;8.578;2023-06-22T09:12:59;4.80;;;2.92;;
23555;SDS011;11956;53.184;8.578;2023-06-22T09:16:00;4.72;;;3.50;;
23555;SDS011;11956;53.184;8.578;2023-06-22T09:19:01;3.55;;;3.20;;
23555;SDS011;11956;53.184;8.578;2023-06-22T09:22:02;4.40;;;3.42;;
23555;SDS011;11956;53.184;8.578;2023-06-22T09:25:06;4.88;;;3.45;;
23555;SDS011;11956;53.184;8.578;2023-06-22T09:28:07;3.50;;;3.20;;
23555;SDS011;11956;53.184;8.578;2023-06-22T09:31:08;3.45;;;3.08;;
23555;SDS011;11956;53.184;8.578;2023-06-22T09:34:09;4.85;;;3.53;;
23555;SDS011;11956;53.184;8.578;2023-06-22T09:37:10;6.18;;;4.20;;
23555;SDS011;11956;53.184;8.578;2023-06-22T09:40:11;3.42;;;3.13;;
23555;SDS011;11956;53.184;8.578;2023-06-22T09:43:13;5.45;;;3.95;;
23555;SDS011;11956;53.184;8.578;2023-06-22T09:46:16;3.47;;;3.15;;
23555;SDS011;11956;53.184;8.578;2023-06-22T09:49:17;4.10;;;3.38;;
23555;SDS011;11956;53.184;8.578;2023-06-22T09:52:21;4.35;;;3.70;;
23555;SDS011;11956;53.184;8.578;2023-06-22T09:55:22;4.88;;;3.85;;
23555;SDS011;11956;53.184;8.578;2023-06-22T09:58:23;4.78;;;3.50;;
23555;SDS011;11956;53.184;8.578;2023-06-22T10:01:24;4.68;;;3.58;;
23555;SDS011;11956;53.184;8.578;2023-06-22T10:04:25;5.55;;;4.50;;
23555;SDS011;11956;53.184;8.578;2023-06-22T10:07:26;3.67;;;3.00;;
23555;SDS011;11956;53.184;8.578;2023-06-22T10:10:27;3.97;;;3.22;;
23555;SDS011;11956;53.184;8.578;2023-06-22T10:13:28;6.82;;;5.30;;
23555;SDS011;11956;53.184;8.578;2023-06-22T10:16:32;5.15;;;4.63;;
23555;SDS011;11956;53.184;8.578;2023-06-22T10:19:33;4.32;;;3.20;;
23555;SDS011;11956;53.184;8.578;2023-06-22T10:22:46;6.50;;;5.45;;
23555;SDS011;11956;53.184;8.578;2023-06-22T10:25:46;4.80;;;4.18;;
23555;SDS011;11956;53.184;8.578;2023-06-22T10:28:48;3.97;;;3.40;;
23555;SDS011;11956;53.184;8.578;2023-06-22T10:31:49;8.70;;;5.20;;
23555;SDS011;11956;53.184;8.578;2023-06-22T10:34:50;3.80;;;3.47;;
23555;SDS011;11956;53.184;8.578;2023-06-22T10:37:52;7.00;;;5.05;;
23555;SDS011;11956;53.184;8.578;2023-06-22T10:40:54;4.82;;;3.75;;
23555;SDS011;11956;53.184;8.578;2023-06-22T10:43:55;7.70;;;4.50;;
23555;SDS011;11956;53.184;8.578;2023-06-22T10:46:56;6.53;;;5.72;;
23555;SDS011;11956;53.184;8.578;2023-06-22T10:49:57;7.18;;;5.85;;
23555;SDS011;11956;53.184;8.578;2023-06-22T10:52:58;7.78;;;4.82;;
23555;SDS011;11956;53.184;8.578;2023-06-22T10:55:59;7.60;;;5.28;;
23555;SDS011;11956;53.184;8.578;2023-06-22T10:59:00;7.88;;;5.90;;
23555;SDS011;11956;53.184;8.578;2023-06-22T11:02:01;6.50;;;5.82;;
23555;SDS011;11956;53.184;8.578;2023-06-22T11:05:02;8.20;;;5.93;;
23555;SDS011;11956;53.184;8.578;2023-06-22T11:08:04;5.82;;;5.22;;
23555;SDS011;11956;53.184;8.578;2023-06-22T11:11:04;4.97;;;4.43;;
23555;SDS011;11956;53.184;8.578;2023-06-22T11:14:05;8.90;;;6.22;;
23555;SDS011;11956;53.184;8.578;2023-06-22T11:17:06;6.63;;;5.50;;
23555;SDS011;11956;53.184;8.578;2023-06-22T11:20:07;8.13;;;6.15;;
23555;SDS011;11956;53.184;8.578;2023-06-22T11:23:10;7.13;;;6.25;;
23555;SDS011;11956;53.184;8.578;2023-06-22T11:26:12;8.20;;;5.75;;
23555;SDS011;11956;53.184;8.578;2023-06-22T11:29:13;5.75;;;5.15;;
23555;SDS011;11956;53.184;8.578;2023-06-22T11:32:14;8.13;;;6.47;;
23555;SDS011;11956;53.184;8.578;2023-06-22T11:35:15;9.40;;;7.10;;
23555;SDS011;11956;53.184;8.578;2023-06-22T11:38:15;7.45;;;6.75;;
23555;SDS011;11956;53.184;8.578;2023-06-22T11:41:17;8.57;;;6.25;;
23555;SDS011;11956;53.184;8.578;2023-06-22T11:44:18;5.85;;;5.25;;
23555;SDS011;11956;53.184;8.578;2023-06-22T11:47:18;8.43;;;5.25;;
23555;SDS011;11956;53.184;8.578;2023-06-22T11:50:19;9.02;;;7.00;;
23555;SDS011;11956;53.184;8.578;2023-06-22T11:53:21;7.50;;;6.10;;
23555;SDS011;11956;53.184;8.578;2023-06-22T11:56:25;6.38;;;5.68;;
23555;SDS011;11956;53.184;8.578;2023-06-22T11:59:27;9.20;;;7.70;;
23555;SDS011;11956;53.184;8.578;2023-06-22T12:02:28;10.70;;;7.80;;
23555;SDS011;11956;53.184;8.578;2023-06-22T12:05:29;6.60;;;5.90;;
23555;SDS011;11956;53.184;8.578;2023-06-22T12:08:30;7.53;;;6.65;;
23555;SDS011;11956;53.184;8.578;2023-06-22T12:11:31;6.20;;;5.60;;
23555;SDS011;11956;53.184;8.578;2023-06-22T12:14:32;6.68;;;5.75;;
23555;SDS011;11956;53.184;8.578;2023-06-22T12:17:33;8.63;;;6.30;;
23555;SDS011;11956;53.184;8.578;2023-06-22T12:20:34;7.37;;;5.90;;
23555;SDS011;11956;53.184;8.578;2023-06-22T12:23:35;7.30;;;6.38;;
23555;SDS011;11956;53.184;8.578;2023-06-22T12:26:36;10.90;;;7.43;;
23555;SDS011;11956;53.184;8.578;2023-06-22T12:29:37;7.00;;;6.20;;
23555;SDS011;11956;53.184;8.578;2023-06-22T12:32:38;7.07;;;6.00;;
23555;SDS011;11956;53.184;8.578;2023-06-22T12:35:38;7.60;;;6.60;;
23555;SDS011;11956;53.184;8.578;2023-06-22T12:38:39;6.75;;;6.00;;
23555;SDS011;11956;53.184;8.578;2023-06-22T12:41:40;6.85;;;6.15;;
23555;SDS011;11956;53.184;8.578;2023-06-22T12:44:41;8.32;;;6.00;;
23555;SDS011;11956;53.184;8.578;2023-06-22T12:47:43;5.78;;;5.00;;
23555;SDS011;11956;53.184;8.578;2023-06-22T12:50:43;8.30;;;5.35;;
23555;SDS011;11956;53.184;8.578;2023-06-22T12:53:44;5.57;;;5.00;;
23555;SDS011;11956;53.184;8.578;2023-06-22T12:56:45;7.70;;;5.93;;
23555;SDS011;11956;53.184;8.578;2023-06-22T12:59:47;7.50;;;6.38;;
23555;SDS011;11956;53.184;8.578;2023-06-22T13:02:47;9.07;;;6.15;;
23555;SDS011;11956;53.184;8.578;2023-06-22T13:05:48;7.72;;;5.75;;
23555;SDS011;11956;53.184;8.578;2023-06-22T13:08:49;6.82;;;5.78;;
23555;SDS011;11956;53.184;8.578;2023-06-22T13:11:50;5.90;;;5.20;;
23555;SDS011;11956;53.184;8.578;2023-06-22T13:14:52;7.60;;;4.97;;
23555;SDS011;11956;53.184;8.578;2023-06-22T13:17:53;6.53;;;4.53;;
23555;SDS011;11956;53.184;8.578;2023-06-22T13:20:54;7.50;;;5.72;;
23555;SDS011;11956;53.184;8.578;2023-06-22T13:23:55;8.13;;;5.20;;
23555;SDS011;11956;53.184;8.578;2023-06-22T13:26:56;6.05;;;5.30;;
23555;SDS011;11956;53.184;8.578;2023-06-22T13:29:57;6.18;;;5.57;;
23555;SDS011;11956;53.184;8.578;2023-06-22T13:32:58;7.00;;;5.57;;
23555;SDS011;11956;53.184;8.578;2023-06-22T13:35:59;5.38;;;4.85;;
23555;SDS011;11956;53.184;8.578;2023-06-22T13:38:59;7.10;;;5.40;;
23555;SDS011;11956;53.184;8.578;2023-06-22T13:42:00;5.50;;;4.45;;
23555;SDS011;11956;53.184;8.578;2023-06-22T13:45:01;7.07;;;5.20;;
23555;SDS011;11956;53.184;8.578;2023-06-22T13:48:03;6.13;;;5.15;;
23555;SDS011;11956;53.184;8.578;2023-06-22T13:51:04;6.97;;;5.00;;
23555;SDS011;11956;53.184;8.578;2023-06-22T13:54:06;7.68;;;5.40;;
23555;SDS011;11956;53.184;8.578;2023-06-22T13:57:07;6.88;;;5.85;;
23555;SDS011;11956;53.184;8.578;2023-06-22T14:00:07;8.65;;;6.18;;
23555;SDS011;11956;53.184;8.578;2023-06-22T14:03:12;7.15;;;6.40;;
23555;SDS011;11956;53.184;8.578;2023-06-22T14:06:16;8.52;;;6.25;;
23555;SDS011;11956;53.184;8.578;2023-06-22T14:09:17;10.27;;;6.32;;
23555;SDS011;11956;53.184;8.578;2023-06-22T14:12:17;6.88;;;5.93;;
23555;SDS011;11956;53.184;8.578;2023-06-22T14:15:19;6.13;;;5.25;;
23555;SDS011;11956;53.184;8.578;2023-06-22T14:18:20;6.50;;;5.43;;
23555;SDS011;11956;53.184;8.578;2023-06-22T14:21:22;9.25;;;6.43;;
23555;SDS011;11956;53.184;8.578;2023-06-22T14:24:23;7.88;;;6.07;;
23555;SDS011;11956;53.184;8.578;2023-06-22T14:27:24;7.50;;;5.50;;
23555;SDS011;11956;53.184;8.578;2023-06-22T14:30:25;6.75;;;5.28;;
23555;SDS011;11956;53.184;8.578;2023-06-22T14:33:26;6.75;;;5.63;;
23555;SDS011;11956;53.184;8.578;2023-06-22T14:36:26;6.55;;;5.90;;
23555;SDS011;11956;53.184;8.578;2023-06-22T14:39:27;6.18;;;5.40;;
23555;SDS011;11956;53.184;8.578;2023-06-22T14:42:28;6.68;;;5.20;;
23555;SDS011;11956;53.184;8.578;2023-06-22T14:45:30;9.13;;;6.10;;
23555;SDS011;11956;53.184;8.578;2023-06-22T14:48:31;6.32;;;5.72;;
23555;SDS011;11956;53.184;8.578;2023-06-22T14:51:32;7.55;;;5.80;;
23555;SDS011;11956;53.184;8.578;2023-06-22T14:54:33;12.10;;;6.78;;
23555;SDS011;11956;53.184;8.578;2023-06-22T14:57:34;7.03;;;5.50;;
23555;SDS011;11956;53.184;8.578;2023-06-22T15:00:35;7.00;;;6.25;;
23555;SDS011;11956;53.184;8.578;2023-06-22T15:03:35;8.52;;;6.57;;
23555;SDS011;11956;53.184;8.578;2023-06-22T15:06:37;8.90;;;6.97;;
23555;SDS011;11956;53.184;8.578;2023-06-22T15:09:38;9.80;;;6.82;;
23555;SDS011;11956;53.184;8.578;2023-06-22T15:12:42;7.35;;;6.55;;
23555;SDS011;11956;53.184;8.578;2023-06-22T15:15:44;7.78;;;6.90;;
23555;SDS011;11956;53.184;8.578;2023-06-22T15:18:47;8.70;;;6.72;;
23555;SDS011;11956;53.184;8.578;2023-06-22T15:21:49;7.55;;;6.60;;
23555;SDS011;11956;53.184;8.578;2023-06-22T15:24:49;11.20;;;7.60;;
23555;SDS011;11956;53.184;8.578;2023-06-22T15:27:53;8.10;;;6.40;;
23555;SDS011;11956;53.184;8.578;2023-06-22T15:30:54;8.02;;;7.22;;
23555;SDS011;11956;53.184;8.578;2023-06-22T15:33:54;8.40;;;7.47;;
23555;SDS011;11956;53.184;8.578;2023-06-22T15:36:55;8.90;;;6.72;;
23555;SDS011;11956;53.184;8.578;2023-06-22T15:39:56;9.57;;;7.80;;
23555;SDS011;11956;53.184;8.578;2023-06-22T15:42:58;14.50;;;7.80;;
23555;SDS011;11956;53.184;8.578;2023-06-22T15:45:59;10.45;;;6.82;;
23555;SDS011;11956;53.184;8.578;2023-06-22T15:49:00;8.82;;;6.93;;
23555;SDS011;11956;53.184;8.578;2023-06-22T15:52:01;11.20;;;7.47;;
23555;SDS011;11956;53.184;8.578;2023-06-22T15:55:02;10.52;;;7.88;;
23555;SDS011;11956;53.184;8.578;2023-06-22T15:58:04;9.65;;;7.68;;
23555;SDS011;11956;53.184;8.578;2023-06-22T16:01:05;11.05;;;7.57;;
23555;SDS011;11956;53.184;8.578;2023-06-22T16:04:05;7.63;;;6.72;;
23555;SDS011;11956;53.184;8.578;2023-06-22T16:07:06;8.43;;;7.10;;
23555;SDS011;11956;53.184;8.578;2023-06-22T16:10:07;7.13;;;6.40;;
23555;SDS011;11956;53.184;8.578;2023-06-22T16:13:09;9.23;;;6.75;;
23555;SDS011;11956;53.184;8.578;2023-06-22T16:16:10;9.13;;;7.85;;
23555;SDS011;11956;53.184;8.578;2023-06-22T16:19:12;11.73;;;8.70;;
23555;SDS011;11956;53.184;8.578;2023-06-22T16:22:13;9.18;;;8.05;;
23555;SDS011;11956;53.184;8.578;2023-06-22T16:25:14;10.23;;;8.23;;
23555;SDS011;11956;53.184;8.578;2023-06-22T16:28:15;9.75;;;8.80;;
23555;SDS011;11956;53.184;8.578;2023-06-22T16:31:16;11.75;;;9.55;;
23555;SDS011;11956;53.184;8.578;2023-06-22T16:34:17;17.00;;;11.93;;
23555;SDS011;11956;53.184;8.578;2023-06-22T16:37:17;21.73;;;13.75;;
23555;SDS011;11956;53.184;8.578;2023-06-22T16:40:18;20.40;;;18.13;;
23555;SDS011;11956;53.184;8.578;2023-06-22T16:43:20;23.63;;;20.90;;
23555;SDS011;11956;53.184;8.578;2023-06-22T16:46:21;25.33;;;20.35;;
23555;SDS011;11956;53.184;8.578;2023-06-22T16:49:22;23.10;;;20.08;;
23555;SDS011;11956;53.184;8.578;2023-06-22T16:52:23;29.60;;;25.73;;
23555;SDS011;11956;53.184;8.578;2023-06-22T16:55:24;25.73;;;23.00;;
23555;SDS011;11956;53.184;8.578;2023-06-22T16:58:25;33.05;;;26.83;;
23555;SDS011;11956;53.184;8.578;2023-06-22T17:01:27;26.80;;;23.77;;
23555;SDS011;11956;53.184;8.578;2023-06-22T17:04:33;32.78;;;26.98;;
23555;SDS011;11956;53.184;8.578;2023-06-22T17:07:34;35.22;;;30.55;;
23555;SDS011;11956;53.184;8.578;2023-06-22T17:10:40;26.98;;;23.27;;
23555;SDS011;11956;53.184;8.578;2023-06-22T17:13:41;26.50;;;23.67;;
23555;SDS011;11956;53.184;8.578;2023-06-22T17:16:43;25.83;;;21.70;;
23555;SDS011;11956;53.184;8.578;2023-06-22T17:19:47;24.50;;;21.67;;
23555;SDS011;11956;53.184;8.578;2023-06-22T17:22:48;21.27;;;18.20;;
23555;SDS011;11956;53.184;8.578;2023-06-22T17:25:49;23.30;;;20.88;;
23555;SDS011;11956;53.184;8.578;2023-06-22T17:28:53;21.35;;;18.10;;
23555;SDS011;11956;53.184;8.578;2023-06-22T17:32:12;22.02;;;19.77;;
23555;SDS011;11956;53.184;8.578;2023-06-22T17:35:13;23.80;;;21.30;;
23555;SDS011;11956;53.184;8.578;2023-06-22T17:38:21;24.20;;;21.63;;
23555;SDS011;11956;53.184;8.578;2023-06-22T17:41:23;23.83;;;21.30;;
23555;SDS011;11956;53.184;8.578;2023-06-22T17:44:33;23.77;;;20.40;;
23555;SDS011;11956;53.184;8.578;2023-06-22T17:47:34;21.63;;;19.33;;
23555;SDS011;11956;53.184;8.578;2023-06-22T17:50:39;19.00;;;16.92;;
23555;SDS011;11956;53.184;8.578;2023-06-22T17:53:46;23.83;;;19.67;;
23555;SDS011;11956;53.184;8.578;2023-06-22T17:56:50;17.00;;;15.18;;
23555;SDS011;11956;53.184;8.578;2023-06-22T17:59:51;18.58;;;16.13;;
23555;SDS011;11956;53.184;8.578;2023-06-22T18:02:52;19.42;;;16.25;;
23555;SDS011;11956;53.184;8.578;2023-06-22T18:05:54;19.60;;;16.40;;
23555;SDS011;11956;53.184;8.578;2023-06-22T18:08:56;16.98;;;14.57;;
23555;SDS011;11956;53.184;8.578;2023-06-22T18:12:02;20.40;;;16.50;;
23555;SDS011;11956;53.184;8.578;2023-06-22T18:15:06;16.23;;;14.48;;